METAR Data
IDs: Format: Raw Decoded Include TAF

Data at: 0253 UTC 25 Feb 2021

LSZL 250220Z AUTO 00000KT 9999NDV NCD 05/01 Q1035 RMK